createdAt,value
2024-02-09T00:01:47.818Z,4.85
2024-02-09T00:04:18.607Z,5.22
2024-02-09T00:06:49.522Z,5.07
2024-02-09T00:09:20.283Z,5.22
2024-02-09T00:11:51.196Z,5.41
2024-02-09T00:14:22.021Z,5.36
2024-02-09T00:16:52.780Z,5.27
2024-02-09T00:19:22.684Z,5.1
2024-02-09T00:21:52.537Z,5.01
2024-02-09T00:24:23.385Z,4.7
2024-02-09T00:26:54.289Z,5.23
2024-02-09T00:29:25.181Z,5.62
2024-02-09T00:31:56.017Z,5.64
2024-02-09T00:34:26.900Z,5.16
2024-02-09T00:36:57.680Z,5.25
2024-02-09T00:39:28.513Z,5.04
2024-02-09T00:41:59.476Z,5.17
2024-02-09T00:44:30.269Z,5.13
2024-02-09T00:47:01.141Z,4.91
2024-02-09T00:49:31.964Z,4.62
2024-02-09T00:52:02.893Z,3.8
2024-02-09T00:54:33.619Z,5.5
2024-02-09T00:57:04.448Z,5.65
2024-02-09T00:59:35.261Z,5.53
2024-02-09T01:02:06.275Z,4.98
2024-02-09T01:04:36.441Z,4.6
2024-02-09T01:07:07.561Z,5.15
2024-02-09T01:09:37.990Z,5.7
2024-02-09T01:12:09.394Z,5.5
2024-02-09T01:14:39.372Z,4.82
2024-02-09T01:17:10.211Z,5.43
2024-02-09T01:19:40.733Z,6.11
2024-02-09T01:22:11.438Z,6.01
2024-02-09T01:24:41.289Z,6.27
2024-02-09T01:27:12.125Z,6.12
2024-02-09T01:29:42.944Z,6.27
2024-02-09T01:32:13.803Z,6.19
2024-02-09T01:34:44.721Z,6.06
2024-02-09T01:37:14.727Z,5.96
2024-02-09T01:39:45.138Z,5.85
2024-02-09T01:42:15.716Z,5.86
2024-02-09T01:44:45.894Z,5.91
2024-02-09T01:47:16.770Z,6.1
2024-02-09T01:49:47.770Z,5.78
2024-02-09T01:52:18.509Z,5.83
2024-02-09T01:54:49.561Z,5.9
2024-02-09T01:57:20.103Z,6.07
2024-02-09T01:59:50.103Z,6.02
2024-02-09T02:02:20.650Z,5.59
2024-02-09T02:04:50.937Z,5.59
2024-02-09T02:07:20.649Z,5.73
2024-02-09T02:09:51.444Z,5.81
2024-02-09T02:12:22.295Z,5.68
2024-02-09T02:14:53.107Z,5.91
2024-02-09T02:17:23.666Z,5.89
2024-02-09T02:19:54.481Z,5.86
2024-02-09T02:22:25.651Z,6.01
2024-02-09T02:24:55.317Z,5.91
2024-02-09T02:27:25.505Z,5.87
2024-02-09T02:29:55.772Z,5.9
2024-02-09T02:32:26.658Z,5.91
2024-02-09T02:34:57.680Z,5.92
2024-02-09T02:37:28.319Z,5.99
2024-02-09T02:39:59.135Z,5.93
2024-02-09T02:42:29.401Z,5.95
2024-02-09T02:45:00.248Z,5.96
2024-02-09T02:47:31.100Z,5.89
2024-02-09T02:50:01.590Z,5.85
2024-02-09T02:52:32.426Z,5.91
2024-02-09T02:55:02.994Z,5.77
2024-02-09T02:57:33.741Z,5.92
2024-02-09T03:00:04.557Z,6.03
2024-02-09T03:02:35.108Z,5.95
2024-02-09T03:05:06.059Z,5.94
2024-02-09T03:08:11.686Z,5.89
2024-02-09T03:10:07.679Z,6.05
2024-02-09T03:12:38.364Z,6.14
2024-02-09T03:15:08.828Z,6.09
2024-02-09T03:17:39.808Z,5.97
2024-02-09T03:20:10.142Z,7.15
2024-02-09T03:22:40.436Z,5.69
2024-02-09T03:25:10.950Z,5.27
2024-02-09T03:27:41.734Z,5.29
2024-02-09T03:30:12.531Z,5.75
2024-02-09T03:32:43.415Z,6.28
2024-02-09T03:35:14.389Z,6.45
2024-02-09T03:37:44.974Z,6.77
2024-02-09T03:40:15.853Z,6.88
2024-02-09T03:42:46.611Z,6.91
2024-02-09T03:45:17.080Z,6.96
2024-02-09T03:47:47.684Z,7.25
2024-02-09T03:50:18.357Z,7.16
2024-02-09T03:52:49.178Z,7.32
2024-02-09T03:55:20.070Z,7.18
2024-02-09T03:57:50.813Z,6.94
2024-02-09T04:00:21.211Z,6.8
2024-02-09T04:02:52.055Z,6.93
2024-02-09T04:05:22.754Z,7.27
2024-02-09T04:07:53.416Z,7.36
2024-02-09T04:10:38.591Z,7.07
2024-02-09T04:12:54.699Z,7.15
2024-02-09T04:15:25.073Z,7.15
2024-02-09T04:17:55.903Z,7.09
2024-02-09T04:20:26.352Z,7.25
2024-02-09T04:22:57.172Z,7.18
2024-02-09T04:25:28.038Z,7.85
2024-02-09T04:27:58.805Z,7.42
2024-02-09T04:30:29.638Z,7.3
2024-02-09T04:33:00.388Z,7.32
2024-02-09T04:35:30.926Z,7.47
2024-02-09T04:38:01.528Z,7.34
2024-02-09T04:40:32.367Z,7.27
2024-02-09T04:43:03.150Z,7.43
2024-02-09T04:45:33.972Z,7.09
2024-02-09T04:48:04.471Z,7.12
2024-02-09T04:50:35.146Z,7.33
2024-02-09T04:53:05.926Z,7.61
2024-02-09T04:55:36.755Z,7.31
2024-02-09T04:58:07.298Z,7.23
2024-02-09T05:00:38.086Z,7.39
2024-02-09T05:03:08.792Z,7.21
2024-02-09T05:05:39.293Z,7.26
2024-02-09T05:08:09.722Z,7.18
2024-02-09T05:10:40.617Z,7.39
2024-02-09T05:13:11.311Z,7.31
2024-02-09T05:15:42.062Z,7.32
2024-02-09T05:18:12.890Z,7.26
2024-02-09T05:20:43.602Z,7.83
2024-02-09T05:23:13.725Z,7.67
2024-02-09T05:25:44.271Z,8.1
2024-02-09T05:28:14.991Z,8.49
2024-02-09T05:30:45.531Z,8.16
2024-02-09T05:33:16.233Z,9.12
2024-02-09T05:35:50.241Z,8.67
2024-02-09T05:38:17.365Z,8.51
2024-02-09T05:40:48.093Z,8.43
2024-02-09T05:43:18.638Z,8.68
2024-02-09T05:45:48.787Z,8.59
2024-02-09T05:48:19.855Z,8.75
2024-02-09T05:50:50.229Z,9.19
2024-02-09T05:53:20.990Z,9.11
2024-02-09T05:55:51.695Z,9.43
2024-02-09T05:58:22.481Z,9.93
2024-02-09T06:00:53.147Z,9.17
2024-02-09T06:03:23.354Z,9.04
2024-02-09T06:05:53.778Z,10.17
2024-02-09T06:08:24.472Z,10.22
2024-02-09T06:10:55.212Z,9.86
2024-02-09T06:13:25.755Z,9.74
2024-02-09T06:15:56.161Z,9.55
2024-02-09T06:18:26.913Z,10.11
2024-02-09T06:20:57.037Z,9.99
2024-02-09T06:23:27.347Z,10.12
2024-02-09T06:25:57.819Z,10.3
2024-02-09T06:28:28.592Z,10.32
2024-02-09T06:30:58.459Z,10.46
2024-02-09T06:33:28.938Z,10.56
2024-02-09T06:35:59.269Z,10.72
2024-02-09T06:38:29.699Z,10.86
2024-02-09T06:40:59.974Z,10.92
2024-02-09T06:43:30.347Z,11.43
2024-02-09T06:46:03.465Z,11.95
2024-02-09T06:48:31.449Z,11.49
2024-02-09T06:51:02.044Z,12.17
2024-02-09T06:53:32.384Z,12.28
2024-02-09T06:56:02.735Z,12.36
2024-02-09T06:58:33.029Z,12.19
2024-02-09T07:01:03.657Z,12.39
2024-02-09T07:03:34.868Z,12.38
2024-02-09T07:06:04.692Z,12.18
2024-02-09T07:08:35.377Z,12
2024-02-09T07:11:06.070Z,12.06
2024-02-09T07:13:36.622Z,11.35
2024-02-09T07:16:06.601Z,11.47
2024-02-09T07:18:37.268Z,11.8
2024-02-09T07:21:07.377Z,11.56
2024-02-09T07:23:37.794Z,11.56
2024-02-09T07:26:08.253Z,11.45
2024-02-09T07:28:38.820Z,11.62
2024-02-09T07:31:09.011Z,11.66
2024-02-09T07:33:39.698Z,11.51
2024-02-09T07:36:09.965Z,11.76
2024-02-09T07:38:40.166Z,11.58
2024-02-09T07:41:10.451Z,11.57
2024-02-09T07:43:40.913Z,11.54
2024-02-09T07:46:10.945Z,11.22
2024-02-09T07:48:41.595Z,11.62
2024-02-09T07:51:12.189Z,11.51
2024-02-09T07:53:42.613Z,11.44
2024-02-09T07:56:13.244Z,11.73
2024-02-09T07:58:43.710Z,11.85
2024-02-09T08:01:14.297Z,11.6
2024-02-09T08:03:44.968Z,11.29
2024-02-09T08:06:15.233Z,10.94
2024-02-09T08:08:46.146Z,10.75
2024-02-09T08:11:15.615Z,10.78
2024-02-09T08:13:45.900Z,10.63
2024-02-09T08:16:16.420Z,10.29
2024-02-09T08:18:46.920Z,10.4
2024-02-09T08:21:17.101Z,10.18
2024-02-09T08:23:47.819Z,10.16
2024-02-09T08:26:17.950Z,10.22
2024-02-09T08:28:49.305Z,10.27
2024-02-09T08:31:19.345Z,10.23
2024-02-09T08:33:50.020Z,10.25
2024-02-09T08:36:20.125Z,10.45
2024-02-09T08:38:50.780Z,10.46
2024-02-09T08:41:21.370Z,10.15
2024-02-09T08:43:51.757Z,10.42
2024-02-09T08:46:21.936Z,10.03
2024-02-09T08:48:52.594Z,9.84
2024-02-09T08:51:23.118Z,10.32
2024-02-09T08:53:53.980Z,9.96
2024-02-09T08:56:24.068Z,10.38
2024-02-09T08:58:54.434Z,9.93
2024-02-09T09:01:25.038Z,10.25
2024-02-09T09:03:55.614Z,10.4
2024-02-09T09:06:25.601Z,10.43
2024-02-09T09:08:55.956Z,10.43
2024-02-09T09:11:26.409Z,10.12
2024-02-09T09:13:56.778Z,10.25
2024-02-09T09:16:27.433Z,10.15
2024-02-09T09:18:57.582Z,10.03
2024-02-09T09:21:28.065Z,10.11
2024-02-09T09:23:58.719Z,10.89
2024-02-09T09:26:29.935Z,10.54
2024-02-09T09:28:59.563Z,10.75
2024-02-09T09:31:30.063Z,10.3
2024-02-09T09:34:00.800Z,10.29
2024-02-09T09:36:31.157Z,10.66
2024-02-09T09:39:01.715Z,10.07
2024-02-09T09:41:32.344Z,10.54
2024-02-09T09:44:02.899Z,10.79
2024-02-09T09:46:34.236Z,10.82
2024-02-09T09:49:04.164Z,10.76
2024-02-09T09:51:34.179Z,11.27
2024-02-09T09:54:04.453Z,11.46
2024-02-09T09:56:34.955Z,10.86
2024-02-09T09:59:05.175Z,11.09
2024-02-09T10:01:35.672Z,11.04
2024-02-09T10:04:06.205Z,10.64
2024-02-09T10:06:36.872Z,10.77
2024-02-09T10:09:07.229Z,11.29
2024-02-09T10:11:38.617Z,11.03
2024-02-09T10:14:08.292Z,10.69
2024-02-09T10:16:38.873Z,10.91
2024-02-09T10:19:09.435Z,10.39
2024-02-09T10:21:44.266Z,9.86
2024-02-09T10:24:11.395Z,9.63
2024-02-09T10:26:40.970Z,9.51
2024-02-09T10:29:11.576Z,9.32
2024-02-09T10:31:42.089Z,9.35
2024-02-09T10:34:12.336Z,9.2
2024-02-09T10:36:42.741Z,9.13
2024-02-09T10:39:13.253Z,9.49
2024-02-09T10:41:43.491Z,8.96
2024-02-09T10:44:14.017Z,8.85
2024-02-09T10:46:44.806Z,9.15
2024-02-09T10:49:15.178Z,9.64
2024-02-09T10:51:45.351Z,9.85
2024-02-09T10:54:15.911Z,9.68
2024-02-09T10:56:46.436Z,9.35
2024-02-09T10:59:16.931Z,9.16
2024-02-09T11:01:47.462Z,9.33
2024-02-09T11:04:18.017Z,9.71
2024-02-09T11:06:48.620Z,10.12
2024-02-09T11:09:18.708Z,9.79
2024-02-09T11:11:49.257Z,9.54
2024-02-09T11:14:19.661Z,10.14
2024-02-09T11:16:50.264Z,9.73
2024-02-09T11:19:20.563Z,9.13
2024-02-09T11:21:50.997Z,9.29
2024-02-09T11:24:21.558Z,9.55
2024-02-09T11:26:51.874Z,9.25
2024-02-09T11:29:22.532Z,9.47
2024-02-09T11:31:52.883Z,9.73
2024-02-09T11:34:23.528Z,9.72
2024-02-09T11:36:53.610Z,9.58
2024-02-09T11:39:23.900Z,9.94
2024-02-09T11:41:54.252Z,9.52
2024-02-09T11:44:24.785Z,9.97
2024-02-09T11:46:55.062Z,10.09
2024-02-09T11:49:25.708Z,10.08
2024-02-09T11:51:55.968Z,9.89
2024-02-09T11:54:26.464Z,8.93
2024-02-09T11:56:56.656Z,9.92
2024-02-09T11:59:27.219Z,9.83
2024-02-09T12:01:57.457Z,9.59
2024-02-09T12:04:27.504Z,10.15
2024-02-09T12:06:58.328Z,10.25
2024-02-09T12:09:28.721Z,9.96
2024-02-09T12:11:58.859Z,9.08
2024-02-09T12:14:30.479Z,9.5
2024-02-09T12:16:59.854Z,10.04
2024-02-09T12:19:30.341Z,9.5
2024-02-09T12:22:00.744Z,9.13
2024-02-09T12:24:30.997Z,9.35
2024-02-09T12:27:01.476Z,9.33
2024-02-09T12:29:31.939Z,9.51
2024-02-09T12:32:02.416Z,9.35
2024-02-09T12:34:33.042Z,9.54
2024-02-09T12:37:03.426Z,9.36
2024-02-09T12:39:33.821Z,9.91
2024-02-09T12:42:04.326Z,9.97
2024-02-09T12:44:34.786Z,9.85
2024-02-09T12:47:05.383Z,9.32
2024-02-09T12:49:35.902Z,9.42
2024-02-09T12:52:06.381Z,9.39
2024-02-09T12:54:36.479Z,9.02
2024-02-09T12:57:06.836Z,8.93
2024-02-09T12:59:37.222Z,8.34
2024-02-09T13:04:38.186Z,8.6
2024-02-09T13:07:08.475Z,9.09
2024-02-09T13:09:38.977Z,8.95
2024-02-09T13:12:09.382Z,9.77
2024-02-09T13:14:39.943Z,9.22
2024-02-09T13:17:10.401Z,8.95
2024-02-09T13:19:40.959Z,8.84
2024-02-09T13:22:11.441Z,8.95
2024-02-09T13:24:41.853Z,9.49
2024-02-09T13:27:12.353Z,10.42
2024-02-09T13:29:42.880Z,10.09
2024-02-09T13:32:13.349Z,10.26
2024-02-09T13:34:43.621Z,9.47
2024-02-09T13:37:14.175Z,8.62
2024-02-09T13:39:44.598Z,8.71
2024-02-09T13:42:15.088Z,9.34
2024-02-09T13:44:45.579Z,9.9
2024-02-09T13:47:16.089Z,8.98
2024-02-09T13:49:46.583Z,9.3
2024-02-09T13:52:16.719Z,9.09
2024-02-09T13:54:47.188Z,9.36
2024-02-09T13:57:17.631Z,9.62
2024-02-09T13:59:50.495Z,8.76
2024-02-09T14:02:18.621Z,8.64
2024-02-09T14:04:49.156Z,8.56
2024-02-09T14:07:19.596Z,8.65
2024-02-09T14:09:50.062Z,8.84
2024-02-09T14:12:20.279Z,8.63
2024-02-09T14:14:50.785Z,8.87
2024-02-09T14:17:21.269Z,9.17
2024-02-09T14:19:51.762Z,8.83
2024-02-09T14:22:22.060Z,8.38
2024-02-09T14:24:52.520Z,8.74
2024-02-09T14:27:22.950Z,9.91
2024-02-09T14:29:53.464Z,8.95
2024-02-09T14:32:23.935Z,8.47
2024-02-09T14:34:54.677Z,7.96
2024-02-09T14:37:25.000Z,9.26
2024-02-09T14:39:55.364Z,13.38
2024-02-09T14:42:25.813Z,12.38
2024-02-09T14:44:56.015Z,9.73
2024-02-09T14:47:26.703Z,8.74
2024-02-09T14:49:57.004Z,9.27
2024-02-09T14:52:27.477Z,9.91
2024-02-09T14:54:57.938Z,10.23
2024-02-09T14:57:28.428Z,11.29
2024-02-09T14:59:58.918Z,10.66
2024-02-09T15:02:29.444Z,10.04
2024-02-09T15:05:00.042Z,8.26
2024-02-09T15:07:30.379Z,9.61
2024-02-09T15:10:00.903Z,11.1
2024-02-09T15:12:31.366Z,11.8
2024-02-09T15:15:01.877Z,10.01
2024-02-09T15:17:32.447Z,11.14
2024-02-09T15:20:03.109Z,10.54
2024-02-09T15:22:33.386Z,10.33
2024-02-09T15:25:04.037Z,11.22
2024-02-09T15:27:34.286Z,9.91
2024-02-09T15:30:04.850Z,9.68
2024-02-09T15:32:35.297Z,10.2
2024-02-09T15:35:06.960Z,11.52
2024-02-09T15:37:36.279Z,10.53
2024-02-09T15:40:06.923Z,9.11
2024-02-09T15:42:37.242Z,9.49
2024-02-09T15:45:07.889Z,9.65
2024-02-09T15:47:38.293Z,9.75
2024-02-09T15:50:08.786Z,8.84
2024-02-09T15:52:39.310Z,8.73
2024-02-09T15:55:09.974Z,8.34
2024-02-09T15:57:40.229Z,9.36
2024-02-09T16:00:10.882Z,9.37
2024-02-09T16:02:41.280Z,9.51
2024-02-09T16:05:11.713Z,10.5
2024-02-09T16:07:42.234Z,9.55
2024-02-09T16:10:12.744Z,9.16
2024-02-09T16:12:43.255Z,9.78
2024-02-09T16:15:13.877Z,8.92
2024-02-09T16:17:44.125Z,9.09
2024-02-09T16:20:14.578Z,9.78
2024-02-09T16:22:45.107Z,10.05
2024-02-09T16:25:15.609Z,9.41
2024-02-09T16:27:46.095Z,9.64
2024-02-09T16:30:16.605Z,9.73
2024-02-09T16:32:47.157Z,9.56
2024-02-09T16:35:17.754Z,9.19
2024-02-09T16:37:48.464Z,8.96
2024-02-09T16:40:18.456Z,8.47
2024-02-09T16:42:48.952Z,8.47
2024-02-09T16:45:19.473Z,8.28
2024-02-09T16:47:50.126Z,8.52
2024-02-09T16:50:20.535Z,9.02
2024-02-09T16:52:51.210Z,8.43
2024-02-09T16:55:21.761Z,8.58
2024-02-09T16:57:52.169Z,8.65
2024-02-09T17:00:22.826Z,8.62
2024-02-09T17:02:53.298Z,8.68
2024-02-09T17:05:23.784Z,8.75
2024-02-09T17:07:54.311Z,9.17
2024-02-09T17:10:24.869Z,8.99
2024-02-09T17:12:55.114Z,8.96
2024-02-09T17:15:25.644Z,9.11
2024-02-09T17:17:56.160Z,8.8
2024-02-09T17:20:26.752Z,8.8
2024-02-09T17:22:57.283Z,8.95
2024-02-09T17:25:27.527Z,9.08
2024-02-09T17:27:58.083Z,9.37
2024-02-09T17:30:28.619Z,9.05
2024-02-09T17:32:59.000Z,9.05
2024-02-09T17:35:29.421Z,8.94
2024-02-09T17:38:00.184Z,9.2
2024-02-09T17:40:30.603Z,9.81
2024-02-09T17:43:01.167Z,9.1
2024-02-09T17:45:31.809Z,9.15
2024-02-09T17:48:02.349Z,9.34
2024-02-09T17:50:32.845Z,9.41
2024-02-09T17:53:03.422Z,12.22
2024-02-09T17:55:34.013Z,10.81
2024-02-09T17:58:04.549Z,10.74
2024-02-09T18:00:35.180Z,10.44
2024-02-09T18:03:05.710Z,9.86
2024-02-09T18:05:36.052Z,9.27
2024-02-09T18:08:06.583Z,9.27
2024-02-09T18:10:37.118Z,9.16
2024-02-09T18:13:07.692Z,9.06
2024-02-09T18:15:38.246Z,9.08
2024-02-09T18:18:08.835Z,8.96
2024-02-09T18:20:38.827Z,8.9
2024-02-09T18:23:09.446Z,9.05
2024-02-09T18:25:39.868Z,9.01
2024-02-09T18:28:09.974Z,8.9
2024-02-09T18:30:40.629Z,8.79
2024-02-09T18:33:11.205Z,9.13
2024-02-09T18:35:41.638Z,8.83
2024-02-09T18:38:12.229Z,8.69
2024-02-09T18:40:42.819Z,8.8
2024-02-09T18:43:13.147Z,8.89
2024-02-09T18:45:43.675Z,8.76
2024-02-09T18:48:14.399Z,9.04
2024-02-09T18:50:44.859Z,9.02
2024-02-09T18:53:15.086Z,8.75
2024-02-09T18:55:45.628Z,8.68
2024-02-09T18:58:17.006Z,8.76
2024-02-09T19:00:46.853Z,8.79
2024-02-09T19:03:16.994Z,8.84
2024-02-09T19:05:47.326Z,9.04
2024-02-09T19:08:17.578Z,9
2024-02-09T19:10:48.050Z,8.91
2024-02-09T19:13:18.628Z,9.49
2024-02-09T19:15:49.239Z,9.25
2024-02-09T19:18:19.836Z,9.02
2024-02-09T19:20:50.269Z,9.73
2024-02-09T19:23:20.832Z,9.04
2024-02-09T19:25:51.480Z,9.09
2024-02-09T19:28:21.815Z,8.99
2024-02-09T19:30:52.648Z,9.2
2024-02-09T19:33:23.012Z,9.17
2024-02-09T19:35:53.271Z,9.04
2024-02-09T19:38:23.830Z,9.08
2024-02-09T19:40:54.557Z,9.2
2024-02-09T19:43:24.959Z,9.03
2024-02-09T19:45:55.584Z,9.3
2024-02-09T19:48:26.104Z,9.14
2024-02-09T19:50:56.585Z,9.18
2024-02-09T19:53:26.869Z,9.13
2024-02-09T19:55:57.866Z,9.15
2024-02-09T19:58:27.983Z,9.02
2024-02-09T20:00:57.960Z,9.08
2024-02-09T20:03:28.424Z,9.18
2024-02-09T20:05:58.432Z,9.19
2024-02-09T20:08:29.027Z,9.18
2024-02-09T20:10:59.534Z,9.2
2024-02-09T20:13:30.086Z,9.04
2024-02-09T20:16:00.646Z,9.15
2024-02-09T20:18:31.258Z,9.22
2024-02-09T20:21:01.774Z,9.13
2024-02-09T20:23:32.337Z,9.07
2024-02-09T20:26:02.893Z,9.02
2024-02-09T20:28:33.197Z,9.08
2024-02-09T20:31:03.395Z,8.97
2024-02-09T20:33:33.720Z,9.17
2024-02-09T20:36:04.028Z,9.37
2024-02-09T20:38:34.170Z,9.1
2024-02-09T20:41:04.524Z,9.29
2024-02-09T20:43:34.767Z,9.33
2024-02-09T20:46:05.308Z,9.21
2024-02-09T20:48:35.607Z,9.4
2024-02-09T20:51:05.815Z,9.42
2024-02-09T20:53:36.417Z,9.23
2024-02-09T20:56:06.981Z,8.94
2024-02-09T20:58:37.742Z,8.97
2024-02-09T21:01:08.364Z,9.12
2024-02-09T21:03:38.738Z,9.19
2024-02-09T21:06:09.642Z,9.16
2024-02-09T21:08:40.312Z,9.39
2024-02-09T21:11:10.802Z,9.2
2024-02-09T21:13:41.401Z,9.18
2024-02-09T21:16:11.667Z,9.25
2024-02-09T21:18:41.749Z,9.49
2024-02-09T21:21:12.444Z,9.4
2024-02-09T21:23:43.074Z,9.66
2024-02-09T21:26:13.704Z,9.74
2024-02-09T21:28:43.701Z,10.35
2024-02-09T21:31:14.386Z,10.66
2024-02-09T21:33:44.589Z,10.19
2024-02-09T21:36:14.884Z,10.59
2024-02-09T21:38:45.443Z,10.7
2024-02-09T21:41:15.734Z,10.04
2024-02-09T21:43:46.380Z,9.9
2024-02-09T21:46:16.641Z,9.37
2024-02-09T21:48:47.205Z,9.71
2024-02-09T21:51:17.195Z,9.52
2024-02-09T21:53:47.532Z,9.75
2024-02-09T21:56:17.785Z,9.69
2024-02-09T21:58:48.077Z,9.94
2024-02-09T22:01:18.887Z,9.45
2024-02-09T22:03:49.037Z,9.87
2024-02-09T22:06:19.185Z,9.67
2024-02-09T22:08:49.617Z,9.32
2024-02-09T22:11:19.733Z,8.06
2024-02-09T22:13:50.123Z,9.36
2024-02-09T22:16:20.367Z,9.5
2024-02-09T22:18:50.981Z,9.48
2024-02-09T22:21:21.258Z,9.41
2024-02-09T22:23:51.754Z,9.4
2024-02-09T22:26:22.333Z,9.3
2024-02-09T22:28:52.447Z,9.22
2024-02-09T22:31:23.021Z,8.27
2024-02-09T22:33:53.386Z,9.04
2024-02-09T22:36:23.534Z,8.85
2024-02-09T22:38:54.335Z,9.2
2024-02-09T22:41:25.000Z,9.24
2024-02-09T22:43:55.602Z,9.28
2024-02-09T22:46:25.588Z,9.3
2024-02-09T22:48:55.596Z,9.4
2024-02-09T22:51:26.176Z,9.4
2024-02-09T22:53:56.716Z,9.61
2024-02-09T22:56:26.948Z,9.76
2024-02-09T22:58:57.624Z,10.05
2024-02-09T23:01:27.887Z,10.08
2024-02-09T23:03:58.461Z,10.15
2024-02-09T23:06:29.673Z,10.34
2024-02-09T23:08:59.976Z,10.09
2024-02-09T23:11:31.914Z,10.04
2024-02-09T23:14:01.338Z,9.81
2024-02-09T23:16:31.509Z,9.38
2024-02-09T23:19:02.053Z,9.38
2024-02-09T23:21:32.384Z,9.22
2024-02-09T23:24:03.014Z,9.33
2024-02-09T23:26:33.191Z,9.24
2024-02-09T23:29:03.589Z,9.43
2024-02-09T23:31:34.207Z,9.56
2024-02-09T23:34:04.771Z,9.43
2024-02-09T23:36:35.578Z,9.62
2024-02-09T23:39:06.235Z,9.02
2024-02-09T23:41:37.046Z,9.34
2024-02-09T23:44:07.128Z,9.39
2024-02-09T23:46:38.429Z,9.86
2024-02-09T23:49:08.689Z,10.29
2024-02-09T23:51:39.273Z,10.64
2024-02-09T23:54:10.190Z,10.74
2024-02-09T23:56:40.682Z,10.65
2024-02-09T23:59:11.392Z,10.51
